createdAt,value
2022-12-09T00:01:35.224Z,69.35
2022-12-09T00:04:20.406Z,70.59
2022-12-09T00:07:05.808Z,70.98
2022-12-09T00:09:50.735Z,69.05
2022-12-09T00:12:35.650Z,69.43
2022-12-09T00:15:20.385Z,69.68
2022-12-09T00:18:05.390Z,68.37
2022-12-09T00:20:50.339Z,68.31
2022-12-09T00:23:35.381Z,69.90
2022-12-09T00:26:20.610Z,68.85
2022-12-09T00:29:06.287Z,69.91
2022-12-09T00:31:51.784Z,68.82
2022-12-09T00:34:37.210Z,70.49
2022-12-09T00:37:22.509Z,69.17
2022-12-09T00:40:07.589Z,69.30
2022-12-09T00:42:53.651Z,69.60
2022-12-09T00:45:38.825Z,71.52
2022-12-09T00:48:23.757Z,71.49
2022-12-09T00:51:08.837Z,71.03
2022-12-09T00:53:54.068Z,72.17
2022-12-09T00:56:39.175Z,72.18
2022-12-09T00:59:24.205Z,71.71
2022-12-09T01:02:09.192Z,71.41
2022-12-09T01:04:54.398Z,71.38
2022-12-09T01:07:39.629Z,70.53
2022-12-09T01:10:24.825Z,70.94
2022-12-09T01:13:09.711Z,71.59
2022-12-09T01:15:54.768Z,72.26
2022-12-09T01:18:39.685Z,71.41
2022-12-09T01:21:25.158Z,71.53
2022-12-09T01:24:10.399Z,70.99
2022-12-09T01:26:55.852Z,71.55
2022-12-09T01:29:41.209Z,70.91
2022-12-09T01:32:26.438Z,70.58
2022-12-09T01:35:11.677Z,71.57
2022-12-09T01:37:56.836Z,71.57
2022-12-09T01:40:42.338Z,72.31
2022-12-09T01:43:27.918Z,71.41
2022-12-09T01:46:13.194Z,71.12
2022-12-09T01:48:58.605Z,71.52
2022-12-09T01:51:43.665Z,71.30
2022-12-09T01:54:28.983Z,70.73
2022-12-09T01:57:14.196Z,69.65
2022-12-09T01:59:59.221Z,69.79
2022-12-09T02:02:44.488Z,71.11
2022-12-09T02:05:29.742Z,71.70
2022-12-09T02:08:15.143Z,71.77
2022-12-09T02:11:00.804Z,71.63
2022-12-09T02:13:45.972Z,72.07
2022-12-09T02:16:31.202Z,71.82
2022-12-09T02:19:16.503Z,72.08
2022-12-09T02:22:01.817Z,72.20
2022-12-09T02:24:47.050Z,72.66
2022-12-09T02:27:32.318Z,71.84
2022-12-09T02:30:17.115Z,72.19
2022-12-09T02:33:02.174Z,73.24
2022-12-09T02:35:47.003Z,73.38
2022-12-09T02:38:32.476Z,72.93
2022-12-09T02:41:17.758Z,71.56
2022-12-09T02:44:03.182Z,72.54
2022-12-09T02:46:48.421Z,73.00
2022-12-09T02:49:33.323Z,72.50
2022-12-09T02:52:18.408Z,71.70
2022-12-09T02:55:03.141Z,71.80
2022-12-09T02:57:48.147Z,72.02
2022-12-09T03:00:33.464Z,71.33
2022-12-09T03:03:19.114Z,72.34
2022-12-09T03:06:04.614Z,70.90
2022-12-09T03:08:49.956Z,71.20
2022-12-09T03:11:35.115Z,71.99
2022-12-09T03:14:20.174Z,71.66
2022-12-09T03:17:05.621Z,73.73
2022-12-09T03:19:51.040Z,73.91
2022-12-09T03:22:35.817Z,73.25
2022-12-09T03:25:20.811Z,73.80
2022-12-09T03:28:05.654Z,73.02
2022-12-09T03:30:50.550Z,73.18
2022-12-09T03:33:36.367Z,72.06
2022-12-09T03:36:21.368Z,70.53
2022-12-09T03:39:06.480Z,72.06
2022-12-09T03:41:51.666Z,71.47
2022-12-09T03:44:37.051Z,73.31
2022-12-09T03:47:22.722Z,73.44
2022-12-09T03:50:08.201Z,73.62
2022-12-09T03:52:53.999Z,73.56
2022-12-09T03:55:39.178Z,74.87
2022-12-09T03:58:24.190Z,74.28
2022-12-09T04:01:09.110Z,74.54
2022-12-09T04:03:55.187Z,74.68
2022-12-09T04:06:40.582Z,74.49
2022-12-09T04:09:25.984Z,74.93
2022-12-09T04:12:11.253Z,73.13
2022-12-09T04:14:56.214Z,73.65
2022-12-09T04:17:41.708Z,73.53
2022-12-09T04:20:26.608Z,72.36
2022-12-09T04:23:11.853Z,74.33
2022-12-09T04:25:57.232Z,73.98
2022-12-09T04:28:42.591Z,73.68
2022-12-09T04:31:28.099Z,73.14
2022-12-09T04:34:13.381Z,73.81
2022-12-09T04:36:58.697Z,73.99
2022-12-09T04:39:44.142Z,73.81
2022-12-09T04:42:29.303Z,72.84
2022-12-09T04:45:14.697Z,71.76
2022-12-09T04:47:59.797Z,71.77
2022-12-09T04:50:45.445Z,73.50
2022-12-09T04:53:30.542Z,73.23
2022-12-09T04:56:15.884Z,73.65
2022-12-09T04:59:01.153Z,73.78
2022-12-09T05:01:46.459Z,74.23
2022-12-09T05:04:32.046Z,74.18
2022-12-09T05:07:17.327Z,72.18
2022-12-09T05:10:03.169Z,72.17
2022-12-09T05:12:48.623Z,72.98
2022-12-09T05:15:33.627Z,73.54
2022-12-09T05:18:19.034Z,74.03
2022-12-09T05:21:04.237Z,74.81
2022-12-09T05:23:49.595Z,72.28
2022-12-09T05:26:35.081Z,73.02
2022-12-09T05:29:23.101Z,73.18
2022-12-09T05:32:09.130Z,72.49
2022-12-09T05:34:54.376Z,73.68
2022-12-09T05:37:39.598Z,74.46
2022-12-09T05:40:24.277Z,74.04
2022-12-09T05:43:09.919Z,74.01
2022-12-09T05:45:55.323Z,72.16
2022-12-09T05:48:40.582Z,74.33
2022-12-09T05:51:26.359Z,74.72
2022-12-09T05:54:11.404Z,74.94
2022-12-09T05:56:57.311Z,75.29
2022-12-09T05:59:42.149Z,75.03
2022-12-09T06:02:27.213Z,74.90
2022-12-09T06:05:12.822Z,73.52
2022-12-09T06:08:02.339Z,74.33
2022-12-09T06:10:50.323Z,75.03
2022-12-09T06:13:35.976Z,74.36
2022-12-09T06:16:21.541Z,74.78
2022-12-09T06:19:06.831Z,73.10
2022-12-09T06:21:51.809Z,72.70
2022-12-09T06:24:37.069Z,72.87
2022-12-09T06:27:22.393Z,73.37
2022-12-09T06:30:07.728Z,73.21
2022-12-09T06:32:53.078Z,73.94
2022-12-09T06:35:38.926Z,73.76
2022-12-09T06:38:24.418Z,73.15
2022-12-09T06:41:09.360Z,72.68
2022-12-09T06:43:54.478Z,73.99
2022-12-09T06:46:39.910Z,74.99
2022-12-09T06:49:25.057Z,74.41
2022-12-09T06:52:10.415Z,72.73
2022-12-09T06:54:55.629Z,72.40
2022-12-09T06:57:40.759Z,73.21
2022-12-09T07:00:26.076Z,73.28
2022-12-09T07:03:11.310Z,73.02
2022-12-09T07:05:56.760Z,73.14
2022-12-09T07:08:42.693Z,72.19
2022-12-09T07:11:28.244Z,72.86
2022-12-09T07:14:13.561Z,73.79
2022-12-09T07:16:58.907Z,72.24
2022-12-09T07:19:44.264Z,73.45
2022-12-09T07:22:30.242Z,74.40
2022-12-09T07:25:15.345Z,74.07
2022-12-09T07:28:00.757Z,71.80
2022-12-09T07:30:46.270Z,73.56
2022-12-09T07:33:31.900Z,74.21
2022-12-09T07:36:20.982Z,74.51
2022-12-09T07:39:06.340Z,74.42
2022-12-09T07:41:52.064Z,74.35
2022-12-09T07:44:37.676Z,74.03
2022-12-09T07:47:23.081Z,73.82
2022-12-09T07:50:08.449Z,73.45
2022-12-09T07:52:53.692Z,71.64
2022-12-09T07:55:39.247Z,70.95
2022-12-09T07:58:24.614Z,72.03
2022-12-09T08:01:10.221Z,72.56
2022-12-09T08:03:55.666Z,73.30
2022-12-09T08:06:41.457Z,73.00
2022-12-09T08:09:27.168Z,73.06
2022-12-09T08:12:12.730Z,73.85
2022-12-09T08:14:57.863Z,74.04
2022-12-09T08:17:43.507Z,73.12
2022-12-09T08:20:29.560Z,73.34
2022-12-09T08:23:15.834Z,74.04
2022-12-09T08:26:01.103Z,74.18
2022-12-09T08:28:46.756Z,74.17
2022-12-09T08:31:37.141Z,71.85
2022-12-09T08:34:26.194Z,71.65
2022-12-09T08:37:11.083Z,73.08
2022-12-09T08:39:56.048Z,73.69
2022-12-09T08:42:41.264Z,73.18
2022-12-09T08:45:26.228Z,73.62
2022-12-09T08:48:11.290Z,74.24
2022-12-09T08:50:56.764Z,73.68
2022-12-09T08:53:42.220Z,74.45
2022-12-09T08:56:27.681Z,74.04
2022-12-09T08:59:13.091Z,73.56
2022-12-09T09:01:58.224Z,73.13
2022-12-09T09:04:43.661Z,73.42
2022-12-09T09:07:29.437Z,73.18
2022-12-09T09:10:15.358Z,73.15
2022-12-09T09:13:01.642Z,73.55
2022-12-09T09:15:46.635Z,73.35
2022-12-09T09:18:32.609Z,73.00
2022-12-09T09:21:18.328Z,71.53
2022-12-09T09:24:03.864Z,71.94
2022-12-09T09:26:49.237Z,72.86
2022-12-09T09:29:34.948Z,72.07
2022-12-09T09:32:20.535Z,71.89
2022-12-09T09:35:06.423Z,71.96
2022-12-09T09:37:51.391Z,72.83
2022-12-09T09:40:36.731Z,72.10
2022-12-09T09:43:22.095Z,71.42
2022-12-09T09:46:07.224Z,71.67
2022-12-09T09:48:52.794Z,72.12
2022-12-09T09:51:38.576Z,72.25
2022-12-09T09:54:24.236Z,71.58
2022-12-09T09:57:09.327Z,71.90
2022-12-09T09:59:54.864Z,71.96
2022-12-09T10:02:40.795Z,71.26
2022-12-09T10:05:26.389Z,71.26
2022-12-09T10:08:12.427Z,70.49
2022-12-09T10:10:58.085Z,71.49
2022-12-09T10:13:44.167Z,70.08
2022-12-09T10:16:30.351Z,70.32
2022-12-09T10:19:16.367Z,71.52
2022-12-09T10:22:02.390Z,71.71
2022-12-09T10:24:48.075Z,71.03
2022-12-09T10:27:33.576Z,70.79
2022-12-09T10:30:19.133Z,71.60
2022-12-09T10:33:05.006Z,70.66
2022-12-09T10:35:50.342Z,69.58
2022-12-09T10:38:35.657Z,70.18
2022-12-09T10:41:21.083Z,70.33
2022-12-09T10:44:06.581Z,70.43
2022-12-09T10:46:51.758Z,70.92
2022-12-09T10:49:37.190Z,71.27
2022-12-09T10:52:23.006Z,71.57
2022-12-09T10:55:08.324Z,71.79
2022-12-09T10:57:53.275Z,70.88
2022-12-09T11:00:39.682Z,70.47
2022-12-09T11:03:25.460Z,70.14
2022-12-09T11:06:10.522Z,71.09
2022-12-09T11:08:56.771Z,70.22
2022-12-09T11:11:42.807Z,69.40
2022-12-09T11:14:27.981Z,70.15
2022-12-09T11:17:13.642Z,69.95
2022-12-09T11:19:58.610Z,69.88
2022-12-09T11:22:44.141Z,69.75
2022-12-09T11:25:29.626Z,69.86
2022-12-09T11:28:14.529Z,70.11
2022-12-09T11:34:05.457Z,70.51
2022-12-09T11:36:50.538Z,69.81
2022-12-09T11:39:35.433Z,68.61
2022-12-09T11:42:20.317Z,68.44
2022-12-09T11:45:05.396Z,68.13
2022-12-09T11:48:24.200Z,67.63
2022-12-09T11:50:55.251Z,67.70
2022-12-09T11:53:40.145Z,67.35
2022-12-09T11:56:24.909Z,67.76
2022-12-09T11:59:09.848Z,68.08
2022-12-09T12:01:54.900Z,68.20
2022-12-09T12:04:39.673Z,68.94
2022-12-09T12:07:24.501Z,69.24
2022-12-09T12:10:09.391Z,67.88
2022-12-09T12:12:54.665Z,67.50
2022-12-09T12:15:39.663Z,67.75
2022-12-09T12:18:24.720Z,68.85
2022-12-09T12:21:09.531Z,67.93
2022-12-09T12:23:54.477Z,68.00
2022-12-09T12:26:39.301Z,67.30
2022-12-09T12:29:24.181Z,67.43
2022-12-09T12:32:09.150Z,67.66
2022-12-09T12:34:53.974Z,67.67
2022-12-09T12:37:38.841Z,68.20
2022-12-09T12:40:27.007Z,68.12
2022-12-09T12:43:12.269Z,67.99
2022-12-09T12:45:57.272Z,68.90
2022-12-09T12:48:42.212Z,68.01
2022-12-09T12:51:27.073Z,69.13
2022-12-09T12:54:11.946Z,69.84
2022-12-09T12:56:56.775Z,69.18
2022-12-09T12:59:41.666Z,68.08
2022-12-09T13:02:26.674Z,68.23
2022-12-09T13:05:11.594Z,69.28
2022-12-09T13:07:56.606Z,69.99
2022-12-09T13:10:41.457Z,68.64
2022-12-09T13:13:26.209Z,69.41
2022-12-09T13:16:11.111Z,70.80
2022-12-09T13:18:56.034Z,69.45
2022-12-09T13:21:41.144Z,69.82
2022-12-09T13:24:25.964Z,69.78
2022-12-09T13:27:10.859Z,69.69
2022-12-09T13:29:55.701Z,68.67
2022-12-09T13:32:40.624Z,69.24
2022-12-09T13:35:25.425Z,69.00
2022-12-09T13:38:10.222Z,69.35
2022-12-09T13:40:55.096Z,70.30
2022-12-09T13:43:40.048Z,69.54
2022-12-09T13:46:25.013Z,68.62
2022-12-09T13:49:09.797Z,68.22
2022-12-09T13:51:54.681Z,69.35
2022-12-09T13:54:39.527Z,69.56
2022-12-09T13:57:24.418Z,69.70
2022-12-09T14:00:09.674Z,69.49
2022-12-09T14:02:55.255Z,70.12
2022-12-09T14:05:41.681Z,69.62
2022-12-09T14:08:26.571Z,69.12
2022-12-09T14:11:11.805Z,68.77
2022-12-09T14:13:56.635Z,68.88
2022-12-09T14:16:41.534Z,71.83
2022-12-09T14:19:26.501Z,70.73
2022-12-09T14:22:11.410Z,69.41
2022-12-09T14:24:56.263Z,69.71
2022-12-09T14:27:41.176Z,70.48
2022-12-09T14:30:26.094Z,70.11
2022-12-09T14:33:10.918Z,70.11
2022-12-09T14:35:55.995Z,69.83
2022-12-09T14:38:54.442Z,69.19
2022-12-09T14:41:45.777Z,70.03
2022-12-09T14:44:30.726Z,71.29
2022-12-09T14:47:15.530Z,71.03
2022-12-09T14:50:00.354Z,70.42
2022-12-09T14:52:45.232Z,71.26
2022-12-09T14:55:30.162Z,70.99
2022-12-09T14:58:15.132Z,71.97
2022-12-09T15:00:59.946Z,72.38
2022-12-09T15:03:46.026Z,71.75
2022-12-09T15:06:31.269Z,72.03
2022-12-09T15:09:16.216Z,73.28
2022-12-09T15:12:00.947Z,72.48
2022-12-09T15:14:45.820Z,72.65
2022-12-09T15:17:30.883Z,72.48
2022-12-09T15:20:15.996Z,72.16
2022-12-09T15:23:01.422Z,72.84
2022-12-09T15:25:46.303Z,72.94
2022-12-09T15:28:31.355Z,72.31
2022-12-09T15:31:16.419Z,73.42
2022-12-09T15:34:01.293Z,72.08
2022-12-09T15:36:46.161Z,71.72
2022-12-09T15:39:30.974Z,72.64
2022-12-09T15:42:15.956Z,71.70
2022-12-09T15:45:00.754Z,71.26
2022-12-09T15:47:46.193Z,71.58
2022-12-09T15:50:31.024Z,71.14
2022-12-09T15:53:16.072Z,72.13
2022-12-09T15:56:01.011Z,70.38
2022-12-09T15:58:45.996Z,72.19
2022-12-09T16:01:31.043Z,72.40
2022-12-09T16:04:15.840Z,73.08
2022-12-09T16:07:00.790Z,72.40
2022-12-09T16:09:45.633Z,73.87
2022-12-09T16:12:30.506Z,73.81
2022-12-09T16:15:15.470Z,73.76
2022-12-09T16:18:00.331Z,72.41
2022-12-09T16:20:45.786Z,72.27
2022-12-09T16:23:31.116Z,72.99
2022-12-09T16:26:16.098Z,73.64
2022-12-09T16:29:00.938Z,73.08
2022-12-09T16:31:46.024Z,73.86
2022-12-09T16:34:31.331Z,73.57
2022-12-09T16:37:16.270Z,74.59
2022-12-09T16:40:01.212Z,74.45
2022-12-09T16:42:46.074Z,72.93
2022-12-09T16:45:31.008Z,71.93
2022-12-09T16:48:15.826Z,71.80
2022-12-09T16:51:00.704Z,71.41
2022-12-09T16:53:45.914Z,73.67
2022-12-09T16:56:30.932Z,73.73
2022-12-09T16:59:15.830Z,71.68
2022-12-09T17:02:01.358Z,72.52
2022-12-09T17:04:46.803Z,72.33
2022-12-09T17:07:31.684Z,72.50
2022-12-09T17:10:16.768Z,73.48
2022-12-09T17:13:01.918Z,73.62
2022-12-09T17:15:47.599Z,73.02
2022-12-09T17:18:32.520Z,73.59
2022-12-09T17:21:18.310Z,72.39
2022-12-09T17:24:03.516Z,72.12
2022-12-09T17:26:48.598Z,73.18
2022-12-09T17:29:33.739Z,72.29
2022-12-09T17:32:18.551Z,71.83
2022-12-09T17:35:10.604Z,72.75
2022-12-09T17:37:58.295Z,72.73
2022-12-09T17:40:43.239Z,71.67
2022-12-09T17:43:28.050Z,71.76
2022-12-09T17:46:13.226Z,72.23
2022-12-09T17:48:58.701Z,72.22
2022-12-09T17:51:44.012Z,72.06
2022-12-09T17:54:28.783Z,70.40
2022-12-09T17:57:13.772Z,70.49
2022-12-09T17:59:58.696Z,71.52
2022-12-09T18:02:43.557Z,70.72
2022-12-09T18:05:28.395Z,72.39
2022-12-09T18:08:13.281Z,71.38
2022-12-09T18:10:58.732Z,71.99
2022-12-09T18:13:43.580Z,70.87
2022-12-09T18:16:28.676Z,73.62
2022-12-09T18:19:13.467Z,74.51
2022-12-09T18:21:58.576Z,74.21
2022-12-09T18:24:43.554Z,73.53
2022-12-09T18:27:28.394Z,73.98
2022-12-09T18:30:13.307Z,72.52
2022-12-09T18:32:58.337Z,74.59
2022-12-09T18:35:43.033Z,73.39
2022-12-09T18:38:27.863Z,72.85
2022-12-09T18:41:12.841Z,71.74
2022-12-09T18:43:57.637Z,71.91
2022-12-09T18:46:42.583Z,73.69
2022-12-09T18:49:30.487Z,74.15
2022-12-09T18:52:15.280Z,72.63
2022-12-09T18:55:00.285Z,71.06
2022-12-09T18:57:45.204Z,72.45
2022-12-09T19:00:30.238Z,72.39
2022-12-09T19:03:15.155Z,71.56
2022-12-09T19:06:00.099Z,71.79
2022-12-09T19:08:44.969Z,70.54
2022-12-09T19:11:29.920Z,70.86
2022-12-09T19:14:14.935Z,71.91
2022-12-09T19:16:59.801Z,73.07
2022-12-09T19:19:44.768Z,71.77
2022-12-09T19:22:29.544Z,71.76
2022-12-09T19:25:14.483Z,72.45
2022-12-09T19:27:59.348Z,72.85
2022-12-09T19:30:49.645Z,72.15
2022-12-09T19:33:34.946Z,71.49
2022-12-09T19:36:20.046Z,73.42
2022-12-09T19:39:04.854Z,72.41
2022-12-09T19:41:49.856Z,71.98
2022-12-09T19:45:00.389Z,70.80
2022-12-09T19:47:39.716Z,70.82
2022-12-09T19:50:24.733Z,73.36
2022-12-09T19:53:09.547Z,72.09
2022-12-09T19:55:54.452Z,72.90
2022-12-09T19:58:39.456Z,72.33
2022-12-09T20:01:24.422Z,73.03
2022-12-09T20:04:46.466Z,72.92
2022-12-09T20:07:14.823Z,71.34
2022-12-09T20:09:59.656Z,72.04
2022-12-09T20:12:44.385Z,70.39
2022-12-09T20:15:29.320Z,72.94
2022-12-09T20:18:14.171Z,72.49
2022-12-09T20:20:58.924Z,72.17
2022-12-09T20:23:43.918Z,71.63
2022-12-09T20:26:28.966Z,72.39
2022-12-09T20:29:13.968Z,72.57
2022-12-09T20:31:58.900Z,72.61
2022-12-09T20:34:43.830Z,72.71
2022-12-09T20:37:28.627Z,72.83
2022-12-09T20:40:13.679Z,73.46
2022-12-09T20:42:58.556Z,73.91
2022-12-09T20:45:43.506Z,74.13
2022-12-09T20:48:28.526Z,73.71
2022-12-09T20:51:13.447Z,72.94
2022-12-09T20:53:58.653Z,73.11
2022-12-09T20:56:43.538Z,73.64
2022-12-09T20:59:28.546Z,72.92
2022-12-09T21:02:13.848Z,73.08
2022-12-09T21:04:58.937Z,74.21
2022-12-09T21:07:43.876Z,74.44
2022-12-09T21:10:28.701Z,74.67
2022-12-09T21:13:13.713Z,73.45
2022-12-09T21:15:58.676Z,74.12
2022-12-09T21:18:43.682Z,74.58
2022-12-09T21:21:28.487Z,75.02
2022-12-09T21:24:13.370Z,74.20
2022-12-09T21:26:58.115Z,73.33
2022-12-09T21:29:42.954Z,73.10
2022-12-09T21:32:27.963Z,74.03
2022-12-09T21:35:12.775Z,74.64
2022-12-09T21:37:57.714Z,74.09
2022-12-09T21:40:42.582Z,74.84
2022-12-09T21:43:27.664Z,74.29
2022-12-09T21:46:12.573Z,74.40
2022-12-09T21:49:03.348Z,74.95
2022-12-09T21:51:49.197Z,74.68
2022-12-09T21:54:33.949Z,74.81
2022-12-09T21:57:18.919Z,74.26
2022-12-09T22:00:04.041Z,75.08
2022-12-09T22:02:48.882Z,75.62
2022-12-09T22:05:33.885Z,74.70
2022-12-09T22:08:18.751Z,74.39
2022-12-09T22:11:03.743Z,72.00
2022-12-09T22:13:48.672Z,72.89
2022-12-09T22:16:33.740Z,73.83
2022-12-09T22:19:18.634Z,74.30
2022-12-09T22:22:08.887Z,74.55
2022-12-09T22:24:54.149Z,74.43
2022-12-09T22:27:39.694Z,73.46
2022-12-09T22:30:25.309Z,74.64
2022-12-09T22:33:10.589Z,75.00
2022-12-09T22:35:55.609Z,75.15
2022-12-09T22:38:40.636Z,74.83
2022-12-09T22:41:26.460Z,75.87
2022-12-09T22:44:12.023Z,74.40
2022-12-09T22:46:57.259Z,74.45
2022-12-09T22:49:42.733Z,74.60
2022-12-09T22:52:27.637Z,75.29
2022-12-09T22:55:12.917Z,74.68
2022-12-09T22:57:58.922Z,73.81
2022-12-09T23:00:44.322Z,74.70
2022-12-09T23:03:29.975Z,75.44
2022-12-09T23:06:15.405Z,74.65
2022-12-09T23:09:00.783Z,74.59
2022-12-09T23:11:46.532Z,75.18
2022-12-09T23:14:31.658Z,75.10
2022-12-09T23:17:16.985Z,74.51
2022-12-09T23:20:03.247Z,74.54
2022-12-09T23:22:48.633Z,75.18
2022-12-09T23:25:33.547Z,73.83
2022-12-09T23:28:19.736Z,74.13
2022-12-09T23:31:05.115Z,73.78
2022-12-09T23:33:50.028Z,74.73
2022-12-09T23:36:35.008Z,74.90
2022-12-09T23:39:19.950Z,75.25
2022-12-09T23:42:04.748Z,75.54
2022-12-09T23:44:49.560Z,74.73
2022-12-09T23:47:34.664Z,74.54
2022-12-09T23:50:19.541Z,75.52
2022-12-09T23:53:04.442Z,75.66
2022-12-09T23:55:49.300Z,75.49
2022-12-09T23:58:34.569Z,74.36
